Time;durP1;ratioP1;P1;durP2;ratioP2;P2;SDS_P1;SDS_P2;PMS_P1;PMS_P2;Temp;Humidity;BMP_temperature;BMP_pressure;BME280_temperature;BME280_humidity;BME280_pressure;Samples;Min_cycle;Max_cycle;Signal;HPM_P1;HPM_P2
2022/05/03 00:00:04;;;;;;;;;50.00;38.25;;;;;15.62;45.26;101606.28;2386769;28;44702;-94
2022/05/03 00:01:29;;;;;;;;;41.75;33.50;;;;;15.64;45.36;101607.06;2392609;28;47538;-91
2022/05/03 00:03:17;;;;;;;;;50.00;38.75;;;;;15.64;45.58;101600.00;2388747;28;45258;-91
2022/05/03 00:04:40;;;;;;;;;42.75;35.50;;;;;15.64;45.39;101602.63;2403042;28;45321;-94
2022/05/03 00:06:07;;;;;;;;;47.75;37.00;;;;;15.64;45.21;101607.06;2393345;28;44609;-93
2022/05/03 00:07:28;;;;;;;;;41.50;35.75;;;;;15.62;45.33;101604.50;2399154;28;45668;-93
2022/05/03 00:08:52;;;;;;;;;43.25;35.50;;;;;15.62;45.38;101603.63;2394791;28;45295;-93
2022/05/03 00:10:08;;;;;;;;;40.00;34.75;;;;;15.64;45.27;101607.06;2388855;28;47389;-93
2022/05/03 00:11:33;;;;;;;;;48.00;35.25;;;;;15.62;45.34;101600.97;2383274;28;45268;-91
2022/05/03 00:13:01;;;;;;;;;43.75;37.25;;;;;15.57;45.14;101603.81;2389041;28;46788;-92
2022/05/03 00:14:44;;;;;;;;;40.50;35.25;;;;;15.53;45.32;101594.28;2390118;28;45427;-90
2022/05/03 00:15:57;;;;;;;;;50.00;36.00;;;;;15.50;45.34;101595.25;2401493;28;47174;-95
2022/05/03 00:17:08;;;;;;;;;42.00;35.00;;;;;15.48;45.58;101589.13;2398629;28;45301;-94
2022/05/03 00:18:18;;;;;;;;;46.25;36.50;;;;;15.48;45.38;101591.78;2385140;28;47176;-96
2022/05/03 00:19:29;;;;;;;;;44.25;35.75;;;;;15.43;45.47;101588.47;2379197;28;45362;-94
2022/05/03 00:20:40;;;;;;;;;43.75;34.75;;;;;15.41;45.42;101591.19;2378379;28;46759;-95
2022/05/03 00:21:51;;;;;;;;;48.75;32.75;;;;;15.39;45.78;101589.50;2383455;28;44627;-93
2022/05/03 00:23:02;;;;;;;;;43.75;32.75;;;;;15.38;45.69;101591.28;2386819;28;47467;-94
2022/05/03 00:24:13;;;;;;;;;40.50;34.50;;;;;15.35;45.91;101586.13;2378917;28;45249;-92
2022/05/03 00:25:24;;;;;;;;;42.75;34.25;;;;;15.30;45.67;101582.81;2395174;28;46208;-89
2022/05/03 00:26:35;;;;;;;;;45.50;35.25;;;;;15.29;45.72;101589.88;2404412;28;45222;-91
2022/05/03 00:27:47;;;;;;;;;43.50;35.25;;;;;15.28;45.86;101584.66;2393981;28;48035;-89
2022/05/03 00:28:58;;;;;;;;;40.25;34.50;;;;;15.29;45.76;101584.59;2393843;28;45407;-86
2022/05/03 00:30:09;;;;;;;;;46.50;35.25;;;;;15.28;46.14;101588.16;2392563;28;46686;-86
2022/05/03 00:31:20;;;;;;;;;38.50;33.50;;;;;15.27;45.54;101590.88;2397744;28;45334;-86
2022/05/03 00:32:31;;;;;;;;;40.25;35.75;;;;;15.26;46.02;101582.03;2404291;28;45788;-86
2022/05/03 00:33:42;;;;;;;;;43.25;33.25;;;;;15.26;45.81;101582.03;2409226;28;45247;-87
2022/05/03 00:34:55;;;;;;;;;47.75;34.75;;;;;15.26;46.11;101587.34;2397901;28;47387;-87
2022/05/03 00:36:06;;;;;;;;;39.00;32.75;;;;;15.26;45.88;101582.03;2394162;28;45229;-87
2022/05/03 00:37:17;;;;;;;;;39.75;35.00;;;;;15.26;45.68;101582.03;2398006;28;48619;-86
2022/05/03 00:38:27;;;;;;;;;42.75;36.00;;;;;15.26;45.71;101587.34;2403574;28;44770;-87
2022/05/03 00:39:38;;;;;;;;;46.50;35.75;;;;;15.24;45.98;101578.59;2393611;28;47466;-87
2022/05/03 00:40:54;;;;;;;;;46.50;37.00;;;;;15.24;46.06;101578.59;2396926;28;45342;-86
2022/05/03 00:42:14;;;;;;;;;47.00;37.00;;;;;15.23;46.18;101576.91;2393920;28;47197;-86
2022/05/03 00:43:29;;;;;;;;;47.50;35.50;;;;;15.24;46.00;101573.31;2388746;28;45349;-86
2022/05/03 00:45:04;;;;;;;;;41.25;36.75;;;;;15.27;45.95;101574.97;2403295;28;48099;-89
2022/05/03 00:46:22;;;;;;;;;41.25;33.50;;;;;15.26;45.64;101575.91;2394181;28;45255;-90
2022/05/03 00:47:52;;;;;;;;;45.00;36.25;;;;;15.24;46.26;101575.97;2382176;28;47020;-90
2022/05/03 00:49:15;;;;;;;;;48.75;35.75;;;;;15.24;45.88;101572.44;2385640;28;45206;-90
2022/05/03 00:50:52;;;;;;;;;51.25;36.00;;;;;15.21;46.16;101573.41;2388617;28;48054;-90
2022/05/03 00:52:22;;;;;;;;;46.25;36.25;;;;;15.23;46.06;101582.19;2400821;28;45436;-89
2022/05/03 00:54:05;;;;;;;;;43.25;36.25;;;;;15.21;45.99;101573.41;2399234;28;45405;-89
2022/05/03 00:55:43;;;;;;;;;39.75;33.50;;;;;15.23;46.25;101579.53;2394537;28;44803;-88
2022/05/03 00:57:04;;;;;;;;;37.75;34.25;;;;;15.21;45.95;101580.53;2393300;28;46973;-94
2022/05/03 00:58:33;;;;;;;;;42.50;34.75;;;;;15.21;46.04;101573.41;2384675;28;45406;-92
2022/05/03 01:00:14;;;;;;;;;45.00;37.00;;;;;15.14;46.26;101562.22;2392205;28;47105;-93
2022/05/03 01:01:42;;;;;;;;;42.00;34.75;;;;;15.14;46.09;101566.63;2392367;28;45556;-86
2022/05/03 01:03:15;;;;;;;;;42.00;33.25;;;;;15.12;46.21;101568.50;2398409;28;47895;-86
2022/05/03 01:04:36;;;;;;;;;39.25;32.50;;;;;15.07;46.09;101566.91;2402549;28;45224;-91
2022/05/03 01:06:16;;;;;;;;;43.25;36.25;;;;;15.05;46.04;101571.38;2394755;28;45564;-90
2022/05/03 01:07:47;;;;;;;;;49.00;37.25;;;;;15.04;46.42;101567.00;2384582;28;44748;-90
2022/05/03 01:09:05;;;;;;;;;42.25;35.50;;;;;15.04;46.41;101574.94;2399662;28;45282;-85
2022/05/03 01:10:36;;;;;;;;;38.25;33.75;;;;;15.03;46.23;101570.59;2393678;28;44891;-85
2022/05/03 01:12:04;;;;;;;;;39.50;34.25;;;;;15.01;46.50;101575.09;2399587;28;45310;-85
2022/05/03 01:13:20;;;;;;;;;47.50;36.00;;;;;15.01;46.41;101572.44;2397730;28;45218;-88
2022/05/03 01:14:52;;;;;;;;;40.25;34.75;;;;;14.99;46.50;101568.97;2403870;28;46360;-89
2022/05/03 01:16:10;;;;;;;;;45.50;36.25;;;;;14.95;46.40;101570.00;2401337;28;45427;-91
2022/05/03 01:17:29;;;;;;;;;39.25;34.50;;;;;14.94;46.47;101570.91;2395045;28;45256;-93
2022/05/03 01:18:54;;;;;;;;;44.25;38.25;;;;;14.93;46.49;101569.22;2402197;28;45310;-92
2022/05/03 01:20:07;;;;;;;;;44.25;35.00;;;;;14.90;46.48;101566.69;2389240;28;48133;-91
2022/05/03 01:21:45;;;;;;;;;39.25;35.50;;;;;14.92;46.55;101570.13;2393615;28;45374;-87
2022/05/03 01:23:15;;;;;;;;;42.75;34.00;;;;;14.89;46.57;101570.25;2393136;28;48171;-87
2022/05/03 01:24:43;;;;;;;;;44.50;35.25;;;;;14.83;46.57;101568.66;2389903;28;45427;-87
2022/05/03 01:26:16;;;;;;;;;45.25;37.25;;;;;14.83;46.83;101569.53;2389391;28;45398;-87
2022/05/03 01:28:10;;;;;;;;;48.00;37.75;;;;;14.83;46.74;101574.84;2393004;28;45330;-90
2022/05/03 01:29:33;;;;;;;;;50.25;35.50;;;;;14.81;46.73;101573.16;2392617;28;47087;-91
2022/05/03 01:30:47;;;;;;;;;41.25;34.50;;;;;14.79;46.68;101573.19;2398663;28;45279;-91
2022/05/03 01:32:08;;;;;;;;;48.25;37.25;;;;;14.77;46.59;101569.75;2384522;28;47360;-91
2022/05/03 01:33:38;;;;;;;;;43.75;35.75;;;;;14.79;46.74;101572.34;2386406;28;45489;-91
2022/05/03 01:34:51;;;;;;;;;42.50;33.50;;;;;14.79;46.88;101572.34;2389468;28;47092;-89
2022/05/03 01:36:03;;;;;;;;;39.75;33.50;;;;;14.78;46.79;101565.31;2393603;28;45315;-89
2022/05/03 01:37:31;;;;;;;;;41.00;34.75;;;;;14.77;46.76;101567.09;2384297;28;48256;-89
2022/05/03 01:39:12;;;;;;;;;42.25;36.75;;;;;14.77;46.51;101569.75;2389335;28;45360;-88
2022/05/03 01:40:44;;;;;;;;;37.75;34.75;;;;;14.72;46.96;101555.81;2403561;28;45382;-88
2022/05/03 01:42:03;;;;;;;;;40.75;35.25;;;;;14.72;46.67;101561.13;2393728;28;45364;-90
2022/05/03 01:43:39;;;;;;;;;43.00;33.75;;;;;14.72;46.86;101561.13;2384965;28;47179;-90
2022/05/03 01:45:10;;;;;;;;;43.00;36.00;;;;;14.72;46.83;101558.47;2387854;28;44740;-89
2022/05/03 01:46:27;;;;;;;;;42.75;35.00;;;;;14.70;46.67;101558.53;2380088;28;48085;-89
2022/05/03 01:47:55;;;;;;;;;48.25;36.25;;;;;14.71;46.56;101564.69;2384261;28;45317;-88
2022/05/03 01:50:54;;;;;;;;;40.25;33.00;;;;;14.70;46.87;101562.97;2398985;28;45425;-89
2022/05/03 01:52:13;;;;;;;;;43.75;35.00;;;;;14.69;46.86;101555.97;2394155;28;45425;-89
2022/05/03 01:53:36;;;;;;;;;44.75;35.50;;;;;14.69;47.02;101553.31;2393674;28;45198;-87
2022/05/03 01:55:07;;;;;;;;;44.25;35.25;;;;;14.66;46.83;101556.94;2393564;28;46563;-87
2022/05/03 01:56:41;;;;;;;;;37.75;33.25;;;;;14.65;47.09;101556.97;2403672;28;45436;-87
2022/05/03 01:58:01;;;;;;;;;45.00;34.00;;;;;14.63;46.86;101551.75;2385576;28;47382;-88
2022/05/03 01:59:23;;;;;;;;;45.75;36.00;;;;;14.61;47.01;101551.81;2393410;28;45320;-87
2022/05/03 02:00:35;;;;;;;;;45.50;35.50;;;;;14.59;46.68;101550.16;2393393;28;47696;-88
2022/05/03 02:01:56;;;;;;;;;46.00;35.50;;;;;14.57;46.81;101547.53;2386538;28;45243;-88
2022/05/03 02:03:42;;;;;;;;;42.75;35.00;;;;;14.57;47.03;101544.91;2393278;28;46683;-88
2022/05/03 02:05:05;;;;;;;;;45.50;34.25;;;;;14.57;47.00;101552.84;2392574;28;45586;-88
2022/05/03 02:06:29;;;;;;;;;45.00;35.50;;;;;14.55;46.81;101543.22;2393509;28;45707;-88
2022/05/03 02:07:45;;;;;;;;;39.25;35.00;;;;;14.54;47.00;101541.53;2399954;28;45291;-88
2022/05/03 02:09:04;;;;;;;;;40.25;35.00;;;;;14.54;47.05;101547.69;2398787;28;46326;-88
2022/05/03 02:10:45;;;;;;;;;41.75;35.00;;;;;14.50;47.30;101536.34;2394059;28;45338;-88
2022/05/03 02:12:05;;;;;;;;;44.25;35.50;;;;;14.51;47.20;101543.38;2389324;28;47158;-88
2022/05/03 02:15:39;;;;;;;;;43.00;34.00;;;;;14.47;47.29;101546.19;2394001;28;45660;-87
2022/05/03 02:17:11;;;;;;;;;43.25;35.50;;;;;14.46;47.37;101550.59;2383958;28;45177;-87
2022/05/03 02:19:06;;;;;;;;;38.75;32.75;;;;;14.44;47.39;101546.28;2389544;28;46514;-83
2022/05/03 02:20:31;;;;;;;;;40.50;33.50;;;;;14.40;47.13;101551.69;2398102;28;45678;-83
2022/05/03 02:22:14;;;;;;;;;46.50;37.00;;;;;14.39;47.26;101549.97;2402519;28;45697;-91
2022/05/03 02:23:58;;;;;;;;;40.75;35.25;;;;;14.36;47.71;101549.19;2380428;28;45408;-90
2022/05/03 02:25:24;;;;;;;;;36.00;33.75;;;;;14.37;47.49;101550.94;2383487;28;47505;-90
2022/05/03 02:26:43;;;;;;;;;40.75;33.75;;;;;14.37;47.33;101554.41;2379886;28;44733;-90
2022/05/03 02:28:02;;;;;;;;;46.25;34.75;;;;;14.37;47.50;101550.94;2383323;28;47697;-90
2022/05/03 02:29:19;;;;;;;;;37.75;31.75;;;;;14.38;47.76;101550.00;2390526;28;44695;-90
2022/05/03 02:30:32;;;;;;;;;43.25;34.00;;;;;14.37;47.63;101550.94;2392534;28;47000;-89
2022/05/03 02:31:51;;;;;;;;;46.75;35.00;;;;;14.36;47.70;101549.19;2402758;28;45253;-85
2022/05/03 02:33:13;;;;;;;;;43.75;37.75;;;;;14.34;47.61;101554.56;2402305;28;46500;-84
2022/05/03 02:34:40;;;;;;;;;39.75;33.50;;;;;14.35;47.38;101558.03;2402178;28;45216;-84
2022/05/03 02:35:56;;;;;;;;;33.25;30.25;;;;;14.32;47.80;101553.72;2393882;28;45425;-83
2022/05/03 02:37:11;;;;;;;;;40.75;32.75;;;;;14.34;47.58;101548.41;2393970;28;45427;-83
2022/05/03 02:38:30;;;;;;;;;48.75;38.00;;;;;14.32;47.54;101555.53;2393870;28;46456;-83
2022/05/03 02:39:49;;;;;;;;;41.25;31.00;;;;;14.29;47.69;101551.22;2393830;28;44685;-83
2022/05/03 02:41:02;;;;;;;;;42.75;33.50;;;;;14.27;47.74;101551.25;2393745;28;45271;-83
2022/05/03 02:42:14;;;;;;;;;40.25;34.25;;;;;14.30;47.67;101555.56;2394065;28;45179;-92
2022/05/03 02:43:26;;;;;;;;;40.25;34.50;;;;;14.27;47.43;101553.06;2383857;28;46952;-91
2022/05/03 02:44:39;;;;;;;;;41.50;35.25;;;;;14.28;47.74;101552.97;2386790;28;45381;-92
2022/05/03 02:45:56;;;;;;;;;40.00;32.25;;;;;14.29;47.67;101553.84;2393115;28;48222;-94
2022/05/03 02:47:25;;;;;;;;;43.25;33.75;;;;;14.25;47.50;101553.09;2383712;28;45327;-90
2022/05/03 02:48:52;;;;;;;;;44.25;34.75;;;;;14.24;48.00;101548.72;2394931;28;46522;-90
2022/05/03 02:50:12;;;;;;;;;39.50;34.50;;;;;14.23;47.71;101551.41;2403040;28;44686;-91
2022/05/03 02:51:28;;;;;;;;;35.25;32.50;;;;;14.23;47.93;101554.06;2403130;28;46450;-91
2022/05/03 02:52:46;;;;;;;;;35.50;33.00;;;;;14.23;47.78;101560.22;2401008;28;45468;-93
2022/05/03 02:54:10;;;;;;;;;38.25;34.25;;;;;14.21;47.84;101561.19;2393173;28;47345;-91
2022/05/03 02:55:51;;;;;;;;;34.50;27.50;;;;;14.16;47.50;101559.56;2392868;28;45187;-94
2022/05/03 02:57:19;;;;;;;;;42.25;34.75;;;;;14.14;47.49;101564.06;2383480;28;46384;-90
2022/05/03 02:58:58;;;;;;;;;40.50;34.00;;;;;14.12;48.04;101563.25;2388698;28;45275;-93
2022/05/03 03:02:08;;;;;;;;;37.50;34.25;;;;;14.10;47.89;101559.78;2403349;28;45313;-92
2022/05/03 03:03:54;;;;;;;;;37.75;30.75;;;;;14.06;47.93;101555.53;2383963;28;46441;-93
2022/05/03 03:05:09;;;;;;;;;40.00;33.00;;;;;14.02;48.31;101553.91;2372524;28;45442;-95
2022/05/03 03:06:22;;;;;;;;;37.50;30.00;;;;;14.01;48.06;101557.47;2394203;28;47116;-89
2022/05/03 03:07:52;;;;;;;;;34.75;29.00;;;;;14.00;48.22;101553.09;2383859;28;45292;-89
2022/05/03 03:09:03;;;;;;;;;33.50;29.75;;;;;13.99;48.09;101554.88;2379553;28;47175;-91
2022/05/03 03:10:24;;;;;;;;;34.50;29.75;;;;;13.99;48.09;101551.38;2391840;28;44801;-86
2022/05/03 03:12:04;;;;;;;;;37.00;31.75;;;;;14.00;48.18;101547.81;2391462;28;46755;-86
2022/05/03 03:13:32;;;;;;;;;35.25;29.00;;;;;14.02;48.23;101548.63;2399721;28;44743;-84
2022/05/03 03:14:46;;;;;;;;;37.00;30.00;;;;;14.00;48.05;101547.81;2402927;28;45314;-84
2022/05/03 03:15:57;;;;;;;;;42.25;36.00;;;;;14.00;48.31;101546.00;2402979;28;45282;-86
2022/05/03 03:17:09;;;;;;;;;42.75;34.75;;;;;14.00;48.07;101546.00;2403735;28;46466;-91
2022/05/03 03:18:24;;;;;;;;;40.50;32.50;;;;;14.00;48.07;101548.66;2393799;28;45250;-95
2022/05/03 03:19:37;;;;;;;;;40.00;32.75;;;;;13.99;48.32;101560.16;2388452;28;48303;-96
2022/05/03 03:21:04;;;;;;;;;39.00;35.00;;;;;13.99;48.11;101551.38;2393502;28;45417;-89
2022/05/03 03:22:15;;;;;;;;;34.00;32.25;;;;;13.94;48.36;101549.75;2394267;28;45313;-89
2022/05/03 03:23:30;;;;;;;;;38.00;34.50;;;;;13.94;48.04;101552.41;2393142;28;45341;-89
2022/05/03 03:24:42;;;;;;;;;44.75;35.00;;;;;13.94;47.96;101552.41;2386853;28;47027;-90
2022/05/03 03:25:53;;;;;;;;;41.75;34.75;;;;;13.94;48.48;101549.75;2394398;28;45303;-90
2022/05/03 03:27:05;;;;;;;;;32.75;31.25;;;;;13.93;48.39;101548.00;2383773;28;48021;-89
2022/05/03 03:28:19;;;;;;;;;44.25;34.00;;;;;13.93;48.27;101549.78;2386483;28;45425;-91
2022/05/03 03:29:31;;;;;;;;;43.75;33.25;;;;;13.90;48.14;101542.81;2391493;28;47274;-95
2022/05/03 03:30:42;;;;;;;;;43.25;34.75;;;;;13.92;48.48;101550.72;2386262;28;44653;-87
2022/05/03 03:31:54;;;;;;;;;37.75;32.75;;;;;13.92;48.29;101553.34;2395714;28;46426;-87
2022/05/03 03:33:07;;;;;;;;;37.00;31.50;;;;;13.88;48.33;101555.22;2391488;28;45392;-87
2022/05/03 03:34:20;;;;;;;;;43.00;34.00;;;;;13.88;48.57;101549.94;2382053;28;48366;-88
2022/05/03 03:35:31;;;;;;;;;39.50;34.25;;;;;13.87;48.23;101550.88;2386675;28;45283;-88
2022/05/03 03:36:44;;;;;;;;;45.25;37.50;;;;;13.86;47.84;101550.91;2393477;28;45659;-87
2022/05/03 03:37:58;;;;;;;;;44.50;34.50;;;;;13.85;48.42;101552.72;2393437;28;45160;-86
2022/05/03 03:39:08;;;;;;;;;36.50;32.25;;;;;13.87;48.05;101555.28;2393369;28;45554;-85
2022/05/03 03:40:19;;;;;;;;;40.50;33.75;;;;;13.85;48.57;101544.78;2383966;28;45245;-86
2022/05/03 03:41:30;;;;;;;;;46.50;34.00;;;;;13.86;48.51;101551.78;2395303;28;45408;-85
2022/05/03 03:42:45;;;;;;;;;45.25;35.75;;;;;13.86;48.37;101541.22;2402771;28;45258;-86
2022/05/03 03:43:55;;;;;;;;;41.75;35.50;;;;;13.84;48.45;101543.91;2392576;28;47507;-86
2022/05/03 03:45:07;;;;;;;;;43.75;34.75;;;;;13.83;48.33;101547.47;2395737;28;45331;-86
2022/05/03 03:46:18;;;;;;;;;41.75;35.00;;;;;13.84;48.29;101537.75;2383356;28;48176;-86
2022/05/03 03:47:30;;;;;;;;;42.50;31.50;;;;;13.82;48.13;101542.25;2389199;28;45417;-87
2022/05/03 03:48:40;;;;;;;;;40.00;31.50;;;;;13.82;48.34;101550.16;2391620;28;47406;-89
2022/05/03 03:49:51;;;;;;;;;41.75;32.75;;;;;13.82;48.56;101552.81;2390732;28;44604;-89
2022/05/03 03:51:04;;;;;;;;;36.75;33.00;;;;;13.83;48.64;101541.31;2383404;28;46973;-90
2022/05/03 03:52:15;;;;;;;;;41.00;34.00;;;;;13.84;48.02;101543.91;2386524;28;44787;-92
2022/05/03 03:53:27;;;;;;;;;44.25;36.00;;;;;13.87;48.34;101547.38;2386108;28;47177;-90
2022/05/03 03:54:40;;;;;;;;;39.00;34.75;;;;;13.83;48.36;101547.47;2385588;28;45199;-90
2022/05/03 03:55:51;;;;;;;;;33.75;30.50;;;;;13.83;48.35;101550.09;2396027;28;45370;-91
2022/05/03 03:57:04;;;;;;;;;38.25;30.75;;;;;13.82;48.40;101547.53;2392983;28;45251;-92
2022/05/03 03:58:15;;;;;;;;;48.00;35.00;;;;;13.82;48.47;101535.19;2389627;28;46641;-91
2022/05/03 03:59:30;;;;;;;;;44.75;35.50;;;;;13.81;48.22;101535.22;2395945;28;45255;-91
2022/05/03 04:00:41;;;;;;;;;38.00;31.75;;;;;13.82;48.19;101539.59;2386607;28;47084;-90
2022/05/03 04:01:51;;;;;;;;;37.25;32.50;;;;;13.80;48.63;101538.78;2383245;28;45264;-89
2022/05/03 04:03:04;;;;;;;;;39.00;33.75;;;;;13.81;48.58;101538.72;2378562;28;48001;-90
2022/05/03 04:04:17;;;;;;;;;35.00;32.75;;;;;13.81;48.39;101544.00;2386234;28;45267;-91
2022/05/03 04:05:29;;;;;;;;;40.50;33.75;;;;;13.84;48.74;101551.84;2386304;28;48342;-92
2022/05/03 04:06:39;;;;;;;;;34.50;32.25;;;;;13.83;48.54;101534.25;2386264;28;44760;-92
2022/05/03 04:07:50;;;;;;;;;41.00;33.00;;;;;13.85;48.65;101544.78;2389244;28;47180;-89
2022/05/03 04:09:02;;;;;;;;;34.00;28.00;;;;;13.83;48.55;101549.22;2395446;28;44581;-91
2022/05/03 04:10:13;;;;;;;;;44.00;33.75;;;;;13.83;48.33;101557.16;2392423;28;47141;-90
2022/05/03 04:11:23;;;;;;;;;37.00;31.50;;;;;13.79;48.70;101544.97;2395192;28;45240;-90
2022/05/03 04:12:34;;;;;;;;;39.50;33.75;;;;;13.76;48.45;101545.06;2402097;28;46547;-91
2022/05/03 04:13:45;;;;;;;;;35.75;32.00;;;;;13.78;48.66;101553.84;2402805;28;45353;-89
2022/05/03 04:14:56;;;;;;;;;39.00;34.00;;;;;13.73;48.72;101548.69;2402512;28;45431;-89
2022/05/03 04:16:08;;;;;;;;;39.25;28.75;;;;;13.71;48.65;101547.88;2392287;28;45309;-89
2022/05/03 04:17:18;;;;;;;;;47.25;34.25;;;;;13.72;48.56;101545.19;2383095;28;47582;-88
2022/05/03 04:18:44;;;;;;;;;37.50;33.25;;;;;13.72;48.61;101547.84;2376278;28;45370;-88
2022/05/03 04:19:55;;;;;;;;;49.25;38.75;;;;;13.76;48.73;101551.22;2397274;28;47671;-90
2022/05/03 04:21:05;;;;;;;;;44.25;35.75;;;;;13.79;48.65;101551.13;2402186;28;45297;-90
2022/05/03 04:22:25;;;;;;;;;42.75;35.50;;;;;13.79;48.57;101556.41;2392533;28;48010;-91
2022/05/03 04:23:38;;;;;;;;;38.50;34.50;;;;;13.77;48.72;101546.81;2386479;28;45349;-92
2022/05/03 04:24:48;;;;;;;;;46.25;37.50;;;;;13.80;48.89;101558.13;2386019;28;46629;-91
2022/05/03 04:25:59;;;;;;;;;43.25;34.00;;;;;13.79;48.54;101559.06;2399538;28;45238;-90
2022/05/03 04:27:09;;;;;;;;;42.25;34.25;;;;;13.79;48.57;101558.19;2400225;28;46079;-95
2022/05/03 04:28:21;;;;;;;;;37.75;33.00;;;;;13.81;48.69;101556.34;2384296;28;45262;-95
2022/05/03 04:29:32;;;;;;;;;45.25;36.75;;;;;13.81;48.92;101559.88;2388594;28;47519;-93
2022/05/03 04:30:42;;;;;;;;;44.00;35.75;;;;;13.82;48.54;101563.38;2387067;28;45164;-94
2022/05/03 04:31:52;;;;;;;;;44.00;33.75;;;;;13.81;48.77;101557.22;2382580;28;46082;-95
2022/05/03 04:33:03;;;;;;;;;41.50;33.00;;;;;13.81;48.65;101565.16;2381866;28;45002;-94
2022/05/03 04:34:13;;;;;;;;;47.75;36.50;;;;;13.82;48.66;101566.03;2396005;28;48319;-92
2022/05/03 04:35:23;;;;;;;;;40.75;32.00;;;;;13.81;48.76;101559.88;2384736;28;45285;-96
2022/05/03 04:36:35;;;;;;;;;42.25;35.00;;;;;13.83;48.48;101557.16;2390737;28;47157;-91
2022/05/03 04:37:45;;;;;;;;;40.50;34.00;;;;;13.83;48.69;101558.03;2385898;28;45459;-89
2022/05/03 04:38:56;;;;;;;;;36.00;29.75;;;;;13.82;48.56;101561.59;2395248;28;45337;-89
2022/05/03 04:40:08;;;;;;;;;39.75;32.75;;;;;13.81;48.74;101556.34;2392338;28;45377;-88
2022/05/03 04:41:22;;;;;;;;;49.00;35.50;;;;;13.82;48.50;101560.72;2394880;28;45376;-88
2022/05/03 04:42:32;;;;;;;;;40.00;33.25;;;;;13.81;48.83;101556.34;2395740;28;45176;-90
2022/05/03 04:43:43;;;;;;;;;48.00;36.50;;;;;13.83;48.58;101559.81;2393287;28;45245;-91
2022/05/03 04:44:53;;;;;;;;;42.00;34.75;;;;;13.81;48.57;101559.88;2392494;28;45247;-91
2022/05/03 04:46:03;;;;;;;;;46.25;36.75;;;;;13.80;48.61;101558.13;2385317;28;46274;-91
2022/05/03 04:47:14;;;;;;;;;48.50;37.25;;;;;13.81;48.56;101569.56;2384458;28;45264;-95
2022/05/03 04:48:25;;;;;;;;;49.50;35.25;;;;;13.79;48.61;101563.47;2396027;28;47002;-88
2022/05/03 04:49:35;;;;;;;;;40.75;36.00;;;;;13.76;49.05;101567.06;2401970;28;44676;-89
2022/05/03 04:50:46;;;;;;;;;39.75;33.00;;;;;13.72;48.62;101561.03;2402355;28;45429;-88
2022/05/03 04:51:57;;;;;;;;;36.50;33.75;;;;;13.71;48.66;101558.44;2401816;28;45440;-87
2022/05/03 04:53:07;;;;;;;;;38.25;35.25;;;;;13.69;48.41;101555.84;2392580;28;46644;-89
2022/05/03 04:54:18;;;;;;;;;40.75;33.00;;;;;13.68;48.87;101554.13;2387983;28;45524;-87
2022/05/03 04:55:28;;;;;;;;;41.50;35.25;;;;;13.69;48.50;101557.63;2394098;28;45358;-88
2022/05/03 04:56:45;;;;;;;;;36.25;31.25;;;;;13.68;48.58;101559.41;2393829;28;45775;-87
2022/05/03 04:57:55;;;;;;;;;45.00;36.75;;;;;13.66;48.79;101555.94;2384500;28;47591;-88
2022/05/03 04:59:06;;;;;;;;;46.25;34.50;;;;;13.65;48.98;101559.53;2377810;28;44753;-85
2022/05/03 05:00:17;;;;;;;;;43.25;33.75;;;;;13.65;48.94;101554.25;2387347;28;46389;-86
2022/05/03 05:01:27;;;;;;;;;42.25;37.25;;;;;13.67;48.93;101557.69;2398207;28;45402;-86
2022/05/03 05:02:37;;;;;;;;;44.75;37.00;;;;;13.66;48.80;101571.81;2403222;28;46557;-85
2022/05/03 05:03:49;;;;;;;;;43.25;35.00;;;;;13.66;48.64;101560.38;2404140;28;45366;-88
2022/05/03 05:04:59;;;;;;;;;43.75;34.75;;;;;13.67;49.14;101559.47;2393688;28;47156;-87
2022/05/03 05:06:10;;;;;;;;;40.75;35.25;;;;;13.69;48.82;101569.06;2387134;28;45295;-88
2022/05/03 05:07:21;;;;;;;;;40.75;34.00;;;;;13.70;48.72;101564.66;2386507;28;48144;-87
2022/05/03 05:08:31;;;;;;;;;52.00;35.75;;;;;13.69;48.88;101565.56;2386606;28;44784;-88
2022/05/03 05:10:23;;;;;;;;;43.25;32.75;;;;;13.69;48.86;101562.91;2386758;28;47132;-87
2022/05/03 05:11:12;;;;;;;;;51.75;38.50;;;;;13.69;48.94;101563.78;2399398;28;45278;-87
2022/05/03 05:12:22;;;;;;;;;41.25;35.50;;;;;13.68;48.83;101564.69;2403846;28;46300;-87
2022/05/03 05:13:33;;;;;;;;;43.25;36.75;;;;;13.69;48.97;101565.56;2394013;28;45235;-82
2022/05/03 05:14:44;;;;;;;;;47.75;37.00;;;;;13.70;48.82;101568.13;2394105;28;45458;-92
2022/05/03 05:15:55;;;;;;;;;46.50;36.00;;;;;13.72;49.06;101570.75;2398073;28;45333;-92
2022/05/03 05:17:05;;;;;;;;;41.75;34.25;;;;;13.70;48.74;101578.69;2393984;28;47592;-92
2022/05/03 05:18:16;;;;;;;;;37.00;33.50;;;;;13.68;48.91;101575.25;2393685;28;44715;-93
2022/05/03 05:19:27;;;;;;;;;42.50;35.75;;;;;13.68;49.28;101580.53;2396657;28;47584;-93
2022/05/03 05:20:37;;;;;;;;;36.00;31.00;;;;;13.66;48.55;101576.22;2390388;28;45351;-85
2022/05/03 05:21:48;;;;;;;;;19.00;12.00;;;;;13.65;49.15;101580.66;2387567;28;46257;-91
2022/05/03 05:22:59;;;;;;;;;40.00;35.25;;;;;13.64;49.13;101576.28;2392883;28;45450;-87
2022/05/03 05:24:11;;;;;;;;;42.00;34.50;;;;;13.62;48.99;101588.66;2380814;28;47106;-83
2022/05/03 05:25:22;;;;;;;;;42.25;35.50;;;;;13.63;48.97;101582.47;2387236;28;45583;-87
2022/05/03 05:26:32;;;;;;;;;46.50;36.50;;;;;13.62;48.98;101586.03;2384922;28;47037;-87
2022/05/03 05:27:43;;;;;;;;;37.25;34.25;;;;;13.63;49.16;101587.75;2394108;28;45179;-84
2022/05/03 05:28:54;;;;;;;;;41.00;33.75;;;;;13.64;49.42;101589.47;2393816;28;46757;-85
2022/05/03 05:30:06;;;;;;;;;52.00;36.50;;;;;13.64;48.82;101583.31;2397793;28;45224;-85
2022/05/03 05:31:16;;;;;;;;;41.25;34.00;;;;;13.63;48.67;101587.75;2395017;28;46299;-91
2022/05/03 05:32:26;;;;;;;;;41.00;35.00;;;;;13.62;49.26;101586.03;2393213;28;45283;-90
2022/05/03 05:33:37;;;;;;;;;42.75;33.75;;;;;13.65;49.04;101585.06;2389664;28;45535;-90
2022/05/03 05:34:47;;;;;;;;;38.25;32.75;;;;;13.63;49.35;101590.38;2385388;28;45284;-91
2022/05/03 05:35:57;;;;;;;;;49.00;38.75;;;;;13.64;49.15;101589.47;2384299;28;47971;-88
2022/05/03 05:37:08;;;;;;;;;44.00;34.00;;;;;13.64;49.18;101592.13;2392928;28;45269;-86
2022/05/03 05:38:19;;;;;;;;;40.00;35.25;;;;;13.64;49.20;101591.25;2400793;28;46598;-86
2022/05/03 05:39:29;;;;;;;;;44.75;37.00;;;;;13.68;49.22;101592.91;2400563;28;44680;-86
2022/05/03 05:40:40;;;;;;;;;45.50;35.50;;;;;13.67;49.58;101597.31;2403442;28;46253;-86
2022/05/03 05:41:56;;;;;;;;;42.25;33.25;;;;;13.70;49.25;101593.72;2403868;28;44620;-85
2022/05/03 05:43:06;;;;;;;;;45.50;34.25;;;;;13.71;49.20;101591.00;2402950;28;46782;-86
2022/05/03 05:44:17;;;;;;;;;40.50;34.25;;;;;13.72;49.29;101597.16;2403751;28;45456;-85
2022/05/03 05:45:28;;;;;;;;;50.75;38.00;;;;;13.71;48.99;101595.44;2393568;28;46883;-86
2022/05/03 05:46:39;;;;;;;;;39.25;33.50;;;;;13.70;49.02;101599.84;2387032;28;45627;-86
2022/05/03 05:47:49;;;;;;;;;44.25;35.25;;;;;13.70;49.22;101599.84;2385770;28;47938;-86
2022/05/03 05:48:59;;;;;;;;;44.75;33.50;;;;;13.69;49.27;101597.25;2395104;28;45362;-86
2022/05/03 05:50:11;;;;;;;;;22.25;15.75;;;;;13.70;49.45;101605.13;2388485;28;47469;-91
2022/05/03 05:51:21;;;;;;;;;46.25;34.75;;;;;13.68;49.22;101599.03;2386721;28;45311;-91
2022/05/03 05:54:01;;;;;;;;;38.75;35.00;;;;;13.72;49.25;101597.16;2403214;28;44727;-91
2022/05/03 05:55:11;;;;;;;;;42.00;36.25;;;;;13.73;49.52;101599.75;2402803;28;45411;-90
2022/05/03 05:56:21;;;;;;;;;45.50;34.50;;;;;13.74;49.28;101590.03;2403464;28;45283;-92
2022/05/03 05:57:32;;;;;;;;;47.25;36.75;;;;;13.75;49.29;101596.19;2392317;28;47259;-89
2022/05/03 05:58:42;;;;;;;;;46.25;37.75;;;;;13.76;49.28;101598.78;2385969;28;45247;-91